Time;durP1;ratioP1;P1;durP2;ratioP2;P2;SDS_P1;SDS_P2;PMS_P1;PMS_P2;Temp;Humidity;BMP_temperature;BMP_pressure;BME280_temperature;BME280_humidity;BME280_pressure;Samples;Min_cycle;Max_cycle;Signal;HPM_P1;HPM_P2
2021/12/01 00:00:46;;;;;;;14.78;9.30;;;;;;;-0.95;70.95;98453.02;1710875;83;22233;-70
2021/12/01 00:03:13;;;;;;;15.68;10.43;;;;;;;-0.97;71.02;98457.44;1712925;83;21392;-70
2021/12/01 00:05:41;;;;;;;18.62;10.93;;;;;;;-0.98;71.06;98456.24;1695801;83;21437;-70
2021/12/01 00:08:08;;;;;;;25.65;17.50;;;;;;;-1.01;71.20;98455.16;1698709;82;21463;-70
2021/12/01 00:10:36;;;;;;;19.87;13.68;;;;;;;-1.04;71.39;98450.17;1731339;82;20941;-69
2021/12/01 00:13:08;;;;;;;15.70;10.23;;;;;;;-1.07;71.61;98449.88;1727883;82;21024;-69
2021/12/01 00:15:36;;;;;;;15.60;10.58;;;;;;;-1.07;71.74;98449.88;1709539;83;20955;-69
2021/12/01 00:18:03;;;;;;;15.45;10.55;;;;;;;-1.04;71.91;98455.35;1694071;83;21075;-70
2021/12/01 00:20:30;;;;;;;15.78;9.50;;;;;;;-1.05;72.03;98457.58;1728428;82;20980;-69
2021/12/01 00:22:58;;;;;;;16.05;10.30;;;;;;;-1.04;72.16;98460.53;1721615;82;21530;-69
2021/12/01 00:25:25;;;;;;;14.78;10.08;;;;;;;-1.05;72.26;98455.82;1736177;81;22216;-70
2021/12/01 00:27:52;;;;;;;13.88;9.08;;;;;;;-1.01;72.37;98455.16;1709787;82;21000;-69
2021/12/01 00:30:19;;;;;;;13.48;9.00;;;;;;;-0.99;72.51;98459.77;1735127;82;20977;-70
2021/12/01 00:32:46;;;;;;;11.00;7.97;;;;;;;-0.97;72.68;98457.44;1710948;84;21510;-69
2021/12/01 00:35:13;;;;;;;13.03;10.03;;;;;;;-0.93;72.88;98456.80;1713102;82;20999;-69
2021/12/01 00:37:41;;;;;;;11.65;8.40;;;;;;;-0.91;73.06;98460.95;1729456;82;21831;-69
2021/12/01 00:40:10;;;;;;;10.58;8.00;;;;;;;-0.87;73.21;98456.39;1711350;82;21043;-69
2021/12/01 00:42:38;;;;;;;12.10;8.55;;;;;;;-0.84;73.24;98452.33;1723061;82;21087;-69
2021/12/01 00:45:09;;;;;;;10.45;7.95;;;;;;;-0.81;73.27;98446.94;1731116;82;21455;-70
2021/12/01 00:47:43;;;;;;;11.90;7.83;;;;;;;-0.79;73.28;98433.41;1703758;82;20960;-69
2021/12/01 00:50:04;;;;;;;12.45;8.35;;;;;;;-0.75;73.29;98428.89;1701849;82;21846;-69
2021/12/01 00:52:31;;;;;;;10.65;7.87;;;;;;;-0.74;73.27;98428.78;1713045;82;21043;-69
2021/12/01 00:54:58;;;;;;;11.90;8.95;;;;;;;-0.70;73.30;98431.53;1705339;82;21056;-70
2021/12/01 00:57:24;;;;;;;12.30;8.58;;;;;;;-0.70;73.31;98422.45;1724783;82;21416;-70
2021/12/01 00:59:51;;;;;;;12.85;9.78;;;;;;;-0.69;73.35;98415.04;1724520;82;21031;-69
2021/12/01 01:02:18;;;;;;;11.38;8.20;;;;;;;-0.69;73.37;98403.84;1710791;82;21831;-69
2021/12/01 01:04:44;;;;;;;12.40;9.03;;;;;;;-0.68;73.45;98411.98;1707199;82;21039;-69
2021/12/01 01:07:11;;;;;;;27.48;18.70;;;;;;;-0.68;73.48;98408.09;1713309;82;21075;-69
2021/12/01 01:09:38;;;;;;;18.60;13.32;;;;;;;-0.65;73.48;98400.97;1703344;82;21039;-69
2021/12/01 01:17:38;;;;;;;14.05;9.48;;;;;;;-0.63;73.49;98401.69;1713461;82;20944;-69
2021/12/01 01:20:10;;;;;;;12.07;8.53;;;;;;;-0.62;73.47;98401.22;1718026;82;20984;-69
2021/12/01 01:22:38;;;;;;;13.85;9.93;;;;;;;-0.62;73.47;98404.65;1731670;82;21501;-70
2021/12/01 01:25:06;;;;;;;12.93;9.30;;;;;;;-0.59;73.50;98401.02;1729267;82;21083;-70
2021/12/01 01:27:34;;;;;;;15.08;10.43;;;;;;;-0.58;73.50;98401.37;1704743;82;22527;-69
2021/12/01 01:30:01;;;;;;;20.82;14.60;;;;;;;-0.59;73.50;98399.25;1714910;82;21025;-69
2021/12/01 01:32:27;;;;;;;13.32;9.70;;;;;;;-0.56;73.49;98398.70;1714456;82;21039;-69
2021/12/01 01:34:54;;;;;;;29.65;17.90;;;;;;;-0.56;73.47;98389.17;1711303;82;21008;-71
2021/12/01 01:37:21;;;;;;;41.48;22.15;;;;;;;-0.56;73.45;98385.28;1714707;81;21046;-69
2021/12/01 01:39:47;;;;;;;26.57;15.72;;;;;;;-0.55;73.44;98386.11;1726837;82;22250;-69
2021/12/01 01:42:14;;;;;;;54.45;31.07;;;;;;;-0.54;73.49;98382.11;1711098;83;20881;-69
2021/12/01 01:44:41;;;;;;;35.70;21.10;;;;;;;-0.51;73.48;98384.96;1724548;82;21447;-69
2021/12/01 01:47:08;;;;;;;19.35;12.35;;;;;;;-0.49;73.49;98382.63;1708929;82;21039;-69
2021/12/01 01:49:49;;;;;;;13.68;10.58;;;;;;;-0.46;73.48;98377.72;1711064;82;21395;-70
2021/12/01 01:52:09;;;;;;;19.23;14.05;;;;;;;-0.45;73.44;98381.97;1724982;82;22481;-69
2021/12/01 01:54:36;;;;;;;15.00;11.55;;;;;;;-0.43;73.43;98373.62;1729769;82;20961;-69
2021/12/01 01:57:03;;;;;;;15.50;11.03;;;;;;;-0.42;73.37;98362.31;1731357;82;21003;-69
2021/12/01 01:59:30;;;;;;;13.35;9.18;;;;;;;-0.42;73.28;98372.22;1727087;82;21007;-69
2021/12/01 02:01:58;;;;;;;10.98;8.70;;;;;;;-0.41;73.17;98368.69;1732459;82;21051;-69
2021/12/01 02:04:27;;;;;;;10.70;8.43;;;;;;;-0.40;73.10;98372.94;1714554;82;21901;-69
2021/12/01 02:06:54;;;;;;;14.13;11.30;;;;;;;-0.37;73.02;98374.52;1725998;82;21000;-70
2021/12/01 02:09:22;;;;;;;11.48;8.48;;;;;;;-0.36;72.96;98380.90;1705233;82;20996;-69
2021/12/01 02:11:53;;;;;;;11.48;9.18;;;;;;;-0.35;72.90;98369.59;1710879;83;21010;-69
2021/12/01 02:14:19;;;;;;;10.48;8.18;;;;;;;-0.34;72.79;98367.35;1703423;82;21486;-69
2021/12/01 02:16:46;;;;;;;10.60;8.18;;;;;;;-0.33;72.65;98364.29;1725991;82;22202;-70
2021/12/01 02:19:13;;;;;;;11.15;8.78;;;;;;;-0.33;72.64;98378.55;1730315;81;21043;-69
2021/12/01 02:21:40;;;;;;;14.75;10.18;;;;;;;-0.32;72.58;98367.25;1708738;82;21504;-69
2021/12/01 02:24:09;;;;;;;12.90;9.40;;;;;;;-0.34;72.43;98355.68;1721676;82;20973;-69
2021/12/01 02:26:40;;;;;;;10.15;7.75;;;;;;;-0.34;72.32;98360.87;1723308;82;20964;-69
2021/12/01 02:29:10;;;;;;;11.80;8.95;;;;;;;-0.31;71.98;98354.64;1709575;82;22493;-70
2021/12/01 02:31:38;;;;;;;12.13;8.65;;;;;;;-0.27;71.76;98346.20;1720999;82;21545;-69
2021/12/01 02:34:10;;;;;;;12.78;9.48;;;;;;;-0.24;71.70;98343.39;1732028;82;20986;-70
2021/12/01 02:36:37;;;;;;;10.63;8.10;;;;;;;-0.21;71.69;98342.70;1703556;82;21033;-69
2021/12/01 02:39:09;;;;;;;11.88;8.48;;;;;;;-0.18;71.64;98335.20;1735147;81;21049;-69
2021/12/01 02:41:36;;;;;;;18.55;10.80;;;;;;;-0.18;71.51;98336.03;1717966;82;21877;-70
2021/12/01 02:44:05;;;;;;;10.90;8.35;;;;;;;-0.17;71.46;98331.67;1730398;82;21677;-69
2021/12/01 02:46:34;;;;;;;12.15;8.73;;;;;;;-0.16;71.28;98341.11;1732231;82;20964;-69
2021/12/01 02:49:00;;;;;;;11.33;7.50;;;;;;;-0.17;71.24;98354.55;1730680;82;21004;-69
2021/12/01 02:51:28;;;;;;;10.75;8.35;;;;;;;-0.16;71.20;98351.02;1713685;81;21055;-69
2021/12/01 02:53:55;;;;;;;11.55;8.40;;;;;;;-0.17;71.20;98343.34;1703935;82;21865;-69
2021/12/01 02:56:25;;;;;;;11.35;8.70;;;;;;;-0.18;71.19;98345.11;1711025;82;21008;-69
2021/12/01 02:58:53;;;;;;;9.45;7.53;;;;;;;-0.18;71.19;98333.44;1722163;82;21028;-69
2021/12/01 03:01:22;;;;;;;10.82;7.97;;;;;;;-0.17;71.10;98342.88;1722066;82;21039;-69
2021/12/01 03:03:48;;;;;;;11.80;7.53;;;;;;;-0.17;70.99;98337.69;1712033;82;21024;-69
2021/12/01 03:06:16;;;;;;;9.73;7.65;;;;;;;-0.15;70.93;98334.52;1710821;84;21797;-69
2021/12/01 03:08:45;;;;;;;10.58;7.20;;;;;;;-0.13;70.80;98333.94;1672383;83;21032;-69
2021/12/01 03:11:13;;;;;;;9.30;6.83;;;;;;;-0.12;70.60;98326.52;1696820;83;21016;-69
2021/12/01 03:13:39;;;;;;;9.33;7.37;;;;;;;-0.10;70.34;98335.02;1696213;84;21054;-69
2021/12/01 03:16:07;;;;;;;11.30;7.45;;;;;;;-0.08;70.07;98331.87;1715229;83;21441;-69
2021/12/01 03:18:33;;;;;;;9.73;6.92;;;;;;;-0.06;69.97;98331.76;1728998;82;21817;-69
2021/12/01 03:21:00;;;;;;;9.95;7.20;;;;;;;-0.06;69.77;98325.27;1700515;83;21029;-69
2021/12/01 03:23:27;;;;;;;10.98;7.03;;;;;;;-0.06;69.62;98310.53;1699364;83;20976;-69
2021/12/01 03:25:53;;;;;;;11.90;6.90;;;;;;;-0.06;69.33;98309.23;1696585;83;20971;-69
2021/12/01 03:28:20;;;;;;;9.75;7.30;;;;;;;-0.05;69.17;98301.81;1697372;82;21584;-69
2021/12/01 03:30:47;;;;;;;11.10;6.97;;;;;;;-0.04;69.07;98300.04;1724452;83;21891;-69
2021/12/01 03:33:18;;;;;;;10.55;7.05;;;;;;;-0.04;69.06;98294.37;1680675;84;20956;-69
2021/12/01 03:35:46;;;;;;;9.43;6.35;;;;;;;-0.04;68.98;98295.67;1705699;83;20957;-69
2021/12/01 03:38:13;;;;;;;10.45;7.80;;;;;;;-0.06;68.98;98298.03;1696425;84;21057;-69
2021/12/01 03:40:41;;;;;;;12.13;9.20;;;;;;;-0.09;69.02;98293.89;1724768;83;21067;-69
2021/12/01 03:43:08;;;;;;;18.35;11.60;;;;;;;-0.10;68.95;98296.56;1700671;83;21729;-69
2021/12/01 03:45:34;;;;;;;27.52;15.83;;;;;;;-0.13;68.98;98296.78;1722878;81;21346;-69
2021/12/01 03:48:01;;;;;;;15.28;10.98;;;;;;;-0.15;68.99;98287.81;1708739;83;21025;-69
2021/12/01 03:50:28;;;;;;;17.80;12.20;;;;;;;-0.18;68.87;98288.03;1709325;83;21051;-69
2021/12/01 03:52:54;;;;;;;21.17;13.50;;;;;;;-0.17;68.90;98287.56;1733799;82;21011;-69
2021/12/01 03:55:22;;;;;;;21.20;15.10;;;;;;;-0.17;68.90;98286.27;1729603;81;21805;-70
2021/12/01 03:57:48;;;;;;;19.67;12.90;;;;;;;-0.17;68.89;98275.89;1708382;83;21064;-69
2021/12/01 04:00:18;;;;;;;11.73;7.85;;;;;;;-0.17;68.91;98283.20;1702657;83;21012;-70
2021/12/01 04:02:46;;;;;;;9.98;7.78;;;;;;;-0.15;68.91;98277.44;1696179;84;20974;-69
2021/12/01 04:05:13;;;;;;;13.10;9.48;;;;;;;-0.15;68.89;98277.44;1725578;83;21518;-69
2021/12/01 04:07:40;;;;;;;11.48;7.83;;;;;;;-0.13;68.87;98270.37;1717841;83;21841;-69
2021/12/01 04:10:11;;;;;;;9.73;6.72;;;;;;;-0.11;68.81;98274.97;1695848;83;21316;-69
2021/12/01 04:12:41;;;;;;;8.50;6.47;;;;;;;-0.08;68.70;98278.67;1701625;83;21019;-69
2021/12/01 04:15:09;;;;;;;9.88;6.80;;;;;;;-0.07;68.63;98277.73;1712417;83;21047;-69
2021/12/01 04:17:37;;;;;;;8.73;6.50;;;;;;;-0.03;68.66;98270.55;1718702;83;21407;-69
2021/12/01 04:20:07;;;;;;;9.13;6.53;;;;;;;-0.01;68.72;98275.16;1695563;84;22618;-69
2021/12/01 04:22:33;;;;;;;9.35;6.10;;;;;;;0.02;68.84;98271.08;1700407;83;21471;-68
2021/12/01 04:25:00;;;;;;;9.00;6.42;;;;;;;0.03;69.09;98265.42;1709480;83;21055;-69
2021/12/01 04:27:27;;;;;;;9.20;6.55;;;;;;;0.03;69.35;98268.02;1704688;83;21007;-69
2021/12/01 04:29:54;;;;;;;9.10;6.40;;;;;;;0.03;69.64;98266.72;1723576;82;21479;-71
2021/12/01 04:32:21;;;;;;;8.68;6.03;;;;;;;0.01;70.20;98272.48;1705516;83;22532;-69
2021/12/01 04:34:47;;;;;;;11.00;7.00;;;;;;;-0.05;70.78;98256.39;1716749;81;21047;-70
2021/12/01 04:37:14;;;;;;;10.55;6.20;;;;;;;-0.10;71.33;98257.64;1711169;83;21011;-70
2021/12/01 04:39:41;;;;;;;11.30;7.50;;;;;;;-0.16;71.93;98252.42;1712136;82;20999;-70
2021/12/01 04:42:10;;;;;;;12.25;7.80;;;;;;;-0.20;72.43;98248.37;1715387;83;21050;-71
2021/12/01 04:44:38;;;;;;;10.40;7.65;;;;;;;-0.25;72.82;98258.25;1704157;83;22900;-73
2021/12/01 04:47:09;;;;;;;9.93;7.10;;;;;;;-0.27;73.12;98252.34;1715923;83;20987;-72
2021/12/01 04:49:35;;;;;;;15.15;7.80;;;;;;;-0.30;73.51;98258.55;1696855;82;20983;-71
2021/12/01 04:52:02;;;;;;;10.50;6.20;;;;;;;-0.33;73.74;98254.88;1714367;83;20999;-74
2021/12/01 04:54:29;;;;;;;11.28;7.95;;;;;;;-0.35;74.19;98263.23;1724544;82;21007;-73
2021/12/01 04:56:56;;;;;;;10.90;6.70;;;;;;;-0.37;74.49;98262.99;1712880;82;21774;-70
2021/12/01 04:59:23;;;;;;;9.33;6.78;;;;;;;-0.40;74.89;98257.99;1718229;81;21431;-79
2021/12/01 05:01:52;;;;;;;10.25;7.50;;;;;;;-0.41;75.02;98245.97;1710433;83;21128;-75
2021/12/01 05:04:21;;;;;;;8.43;6.15;;;;;;;-0.42;75.21;98249.03;1697932;83;21009;-73
2021/12/01 05:06:49;;;;;;;10.98;7.20;;;;;;;-0.41;75.42;98241.61;1713997;83;21024;-76
2021/12/01 05:09:16;;;;;;;10.55;7.28;;;;;;;-0.41;75.76;98251.15;1717120;82;22540;-75
2021/12/01 05:11:43;;;;;;;9.20;6.83;;;;;;;-0.42;75.92;98246.43;1732448;82;20940;-77
2021/12/01 05:14:11;;;;;;;9.95;6.60;;;;;;;-0.44;76.14;98236.64;1730403;82;21032;-76
2021/12/01 05:16:40;;;;;;;9.45;6.70;;;;;;;-0.43;76.49;98242.66;1731466;82;21023;-72
2021/12/01 05:19:08;;;;;;;9.70;6.85;;;;;;;-0.43;76.59;98237.47;1727167;82;21585;-72
2021/12/01 05:21:35;;;;;;;10.82;7.83;;;;;;;-0.43;76.83;98238.77;1715429;82;21870;-73
2021/12/01 05:24:02;;;;;;;12.35;8.85;;;;;;;-0.44;76.99;98227.56;1731768;82;20991;-74
2021/12/01 05:26:30;;;;;;;11.65;8.55;;;;;;;-0.43;77.08;98230.98;1703347;82;21109;-74
2021/12/01 05:28:56;;;;;;;11.03;8.18;;;;;;;-0.42;77.26;98237.83;1714579;82;21004;-73
2021/12/01 05:31:23;;;;;;;10.53;7.60;;;;;;;-0.42;77.43;98244.30;1704105;82;20936;-71
2021/12/01 05:33:50;;;;;;;11.25;7.83;;;;;;;-0.43;77.55;98249.96;1716730;82;22208;-71
2021/12/01 05:36:16;;;;;;;10.63;7.40;;;;;;;-0.41;77.68;98249.86;1724436;82;21419;-70
2021/12/01 05:38:43;;;;;;;11.05;8.68;;;;;;;-0.38;77.81;98252.26;1730885;82;21039;-73
2021/12/01 05:41:10;;;;;;;10.15;7.25;;;;;;;-0.38;77.99;98248.37;1728052;82;21522;-73
2021/12/01 05:43:36;;;;;;;9.68;7.75;;;;;;;-0.37;78.12;98270.30;1731678;82;21035;-73
2021/12/01 05:46:03;;;;;;;10.32;7.58;;;;;;;-0.35;78.14;98256.75;1730904;82;21877;-73
2021/12/01 05:48:30;;;;;;;11.60;7.72;;;;;;;-0.33;78.23;98248.87;1726214;82;20936;-72
2021/12/01 05:50:57;;;;;;;11.48;7.87;;;;;;;-0.31;78.25;98254.77;1706486;82;20972;-72
2021/12/01 05:53:23;;;;;;;11.05;7.85;;;;;;;-0.30;78.30;98249.47;1732428;82;20960;-72
2021/12/01 05:55:51;;;;;;;10.60;7.58;;;;;;;-0.27;78.32;98247.63;1732901;82;21011;-72
2021/12/01 05:58:19;;;;;;;10.48;7.95;;;;;;;-0.25;78.37;98253.53;1732513;82;21861;-72
2021/12/01 06:00:45;;;;;;;9.78;7.50;;;;;;;-0.22;78.40;98258.50;1732793;82;20944;-72
2021/12/01 06:03:13;;;;;;;11.25;8.40;;;;;;;-0.21;78.44;98258.38;1732456;82;21439;-72
2021/12/01 06:05:39;;;;;;;11.45;8.43;;;;;;;-0.21;78.50;98251.91;1727998;82;21012;-72
2021/12/01 06:08:07;;;;;;;11.43;8.28;;;;;;;-0.19;78.53;98252.65;1724088;82;21000;-72
2021/12/01 06:10:34;;;;;;;11.20;8.28;;;;;;;-0.18;78.63;98259.49;1717466;82;22657;-72
2021/12/01 06:13:00;;;;;;;10.35;8.28;;;;;;;-0.18;78.66;98260.79;1729043;82;21043;-72
2021/12/01 06:15:30;;;;;;;11.05;8.23;;;;;;;-0.17;78.71;98257.73;1717319;82;21053;-72
2021/12/01 06:17:58;;;;;;;11.00;8.15;;;;;;;-0.16;78.80;98257.61;1705297;82;21067;-72
2021/12/01 06:20:26;;;;;;;11.18;8.08;;;;;;;-0.15;78.85;98258.44;1729656;81;20967;-72
2021/12/01 06:22:53;;;;;;;9.83;7.70;;;;;;;-0.13;78.94;98263.05;1725021;82;21794;-72
2021/12/01 06:25:19;;;;;;;12.88;9.58;;;;;;;-0.13;79.03;98266.47;1703438;84;21020;-72
2021/12/01 06:27:47;;;;;;;11.95;7.80;;;;;;;-0.12;79.07;98262.11;1705539;82;21016;-72
2021/12/01 06:30:14;;;;;;;9.80;7.80;;;;;;;-0.10;79.11;98267.55;1703204;84;20995;-72
2021/12/01 06:32:41;;;;;;;12.47;8.80;;;;;;;-0.08;79.12;98265.70;1718663;82;21012;-72
2021/12/01 06:35:08;;;;;;;14.60;9.85;;;;;;;-0.05;79.12;98268.08;1703810;82;21831;-72
2021/12/01 06:37:34;;;;;;;15.43;10.13;;;;;;;-0.04;79.11;98276.69;1730808;82;20944;-72
2021/12/01 06:40:01;;;;;;;12.65;8.40;;;;;;;-0.02;79.12;98271.74;1718296;82;21514;-72
2021/12/01 06:42:28;;;;;;;12.07;8.48;;;;;;;-0.02;79.13;98276.93;1732465;82;21051;-72
2021/12/01 06:44:55;;;;;;;13.50;9.08;;;;;;;-0.04;79.16;98272.32;1731788;82;20996;-72
2021/12/01 06:47:22;;;;;;;13.85;9.28;;;;;;;-0.04;79.20;98274.92;1731803;82;22241;-72
2021/12/01 06:49:49;;;;;;;12.50;9.30;;;;;;;-0.03;79.22;98275.75;1732551;82;21621;-72
2021/12/01 06:52:16;;;;;;;14.75;9.45;;;;;;;-0.02;79.26;98275.63;1730538;82;20948;-73
2021/12/01 06:54:42;;;;;;;11.60;8.88;;;;;;;0.01;79.26;98281.57;1703726;82;20992;-74
2021/12/01 06:57:09;;;;;;;10.80;8.18;;;;;;;0.03;79.22;98280.98;1732305;82;21024;-73
2021/12/01 06:59:36;;;;;;;12.05;8.13;;;;;;;0.06;79.13;98285.95;1722673;82;22639;-69
2021/12/01 07:02:04;;;;;;;10.88;8.80;;;;;;;0.08;79.11;98282.31;1726898;81;20940;-71
2021/12/01 07:04:32;;;;;;;12.73;9.88;;;;;;;0.12;79.06;98281.65;1706170;82;21027;-70
2021/12/01 07:06:58;;;;;;;11.48;8.35;;;;;;;0.13;79.00;98287.20;1708797;82;21077;-70
2021/12/01 07:09:26;;;;;;;12.50;9.05;;;;;;;0.15;79.00;98290.03;1732713;82;20971;-70
2021/12/01 07:11:53;;;;;;;11.00;8.63;;;;;;;0.15;78.92;98286.14;1692622;82;21685;-71
2021/12/01 07:14:20;;;;;;;11.83;8.60;;;;;;;0.17;78.92;98287.33;1693034;84;21362;-71
2021/12/01 07:16:48;;;;;;;12.33;8.50;;;;;;;0.19;78.88;98285.45;1677131;85;21067;-71
2021/12/01 07:19:15;;;;;;;10.32;8.03;;;;;;;0.20;78.84;98284.06;1687975;84;21010;-70
2021/12/01 07:21:41;;;;;;;11.60;7.92;;;;;;;0.21;78.75;98286.20;1690294;84;21033;-71
2021/12/01 07:24:09;;;;;;;12.20;9.05;;;;;;;0.25;78.74;98285.02;1696508;84;22289;-71
2021/12/01 07:26:35;;;;;;;12.05;8.75;;;;;;;0.30;78.62;98282.12;1692857;84;20953;-71
2021/12/01 07:29:02;;;;;;;12.50;8.73;;;;;;;0.33;78.54;98288.38;1669810;84;21487;-69
2021/12/01 07:31:30;;;;;;;12.33;8.10;;;;;;;0.36;78.46;98285.09;1703241;83;21175;-69
2021/12/01 07:33:56;;;;;;;12.03;8.45;;;;;;;0.41;78.38;98289.50;1683344;83;20953;-70
2021/12/01 07:36:23;;;;;;;11.48;8.45;;;;;;;0.44;78.23;98291.88;1702514;83;21808;-69
2021/12/01 07:38:53;;;;;;;12.25;8.88;;;;;;;0.49;78.17;98283.77;1705323;84;21000;-71
2021/12/01 07:41:21;;;;;;;11.45;9.00;;;;;;;0.51;78.07;98286.61;1676832;84;21009;-71
2021/12/01 07:43:47;;;;;;;12.53;9.55;;;;;;;0.53;78.01;98283.89;1688868;84;20950;-73
2021/12/01 07:46:15;;;;;;;16.67;11.43;;;;;;;0.53;78.00;98291.22;1684712;84;21020;-70
2021/12/01 07:48:42;;;;;;;13.53;10.25;;;;;;;0.53;77.99;98291.22;1692817;83;21745;-72
2021/12/01 07:51:09;;;;;;;14.43;10.23;;;;;;;0.52;78.01;98294.76;1703419;84;21522;-71
2021/12/01 07:53:36;;;;;;;11.95;9.50;;;;;;;0.52;78.03;98291.33;1704141;83;21005;-70
2021/12/01 07:56:05;;;;;;;12.13;9.20;;;;;;;0.51;78.08;98306.56;1704190;83;20946;-71
2021/12/01 07:58:32;;;;;;;13.43;9.33;;;;;;;0.49;78.14;98298.88;1704223;83;21029;-70
2021/12/01 08:00:59;;;;;;;12.05;9.45;;;;;;;0.50;78.24;98303.61;1703792;84;21869;-70
2021/12/01 08:03:26;;;;;;;12.10;9.13;;;;;;;0.53;78.30;98309.40;1691456;84;20962;-70
2021/12/01 08:05:52;;;;;;;13.08;9.15;;;;;;;0.55;78.39;98315.78;1695396;84;21037;-70
2021/12/01 08:08:20;;;;;;;13.22;9.53;;;;;;;0.57;78.41;98310.83;1704084;84;21001;-70
2021/12/01 08:10:47;;;;;;;13.78;9.48;;;;;;;0.60;78.50;98315.47;1697211;84;21419;-70
2021/12/01 08:13:13;;;;;;;13.95;9.88;;;;;;;0.62;78.52;98314.88;1690868;83;21787;-71
2021/12/01 08:15:40;;;;;;;12.95;9.55;;;;;;;0.64;78.61;98310.39;1707581;83;21001;-70
2021/12/01 08:18:07;;;;;;;12.80;8.95;;;;;;;0.66;78.65;98322.80;1719680;83;21368;-71
2021/12/01 08:20:36;;;;;;;12.88;9.48;;;;;;;0.66;78.71;98331.89;1713545;83;21005;-71
2021/12/01 08:23:03;;;;;;;12.90;9.40;;;;;;;0.66;78.75;98316.30;1718008;83;21060;-70
2021/12/01 08:25:30;;;;;;;15.63;11.55;;;;;;;0.66;78.80;98320.20;1719835;82;22162;-71
2021/12/01 08:27:56;;;;;;;13.43;10.88;;;;;;;0.67;78.85;98319.27;1719570;83;21416;-70
2021/12/01 08:30:23;;;;;;;14.68;9.98;;;;;;;0.69;78.91;98322.13;1720056;83;20949;-70
2021/12/01 08:32:50;;;;;;;13.08;9.05;;;;;;;0.74;78.97;98333.01;1719648;82;21049;-70
2021/12/01 08:35:17;;;;;;;15.55;10.20;;;;;;;0.77;78.97;98334.11;1719670;83;20950;-70
2021/12/01 08:37:44;;;;;;;17.42;11.53;;;;;;;0.80;78.92;98326.55;1719613;83;22704;-71
2021/12/01 08:40:14;;;;;;;14.73;10.13;;;;;;;0.85;78.94;98321.84;1700825;83;21012;-71
2021/12/01 08:42:41;;;;;;;20.80;12.33;;;;;;;0.87;78.88;98329.08;1664413;84;21053;-70
2021/12/01 08:45:08;;;;;;;22.30;13.15;;;;;;;0.88;78.84;98328.61;1714300;83;21160;-71
2021/12/01 08:47:35;;;;;;;16.80;11.78;;;;;;;0.90;78.85;98332.74;1717490;83;21004;-71
2021/12/01 08:50:02;;;;;;;13.95;10.53;;;;;;;0.91;78.81;98337.00;1719877;83;22436;-70
2021/12/01 08:52:29;;;;;;;14.80;9.45;;;;;;;0.94;78.76;98341.97;1719761;83;20981;-71
2021/12/01 08:54:56;;;;;;;15.03;10.10;;;;;;;0.95;78.67;98338.89;1719704;83;21051;-70
2021/12/01 08:57:22;;;;;;;13.65;9.53;;;;;;;0.95;78.63;98338.42;1681079;83;21506;-70
2021/12/01 08:59:50;;;;;;;15.05;9.95;;;;;;;0.97;78.63;98337.86;1676274;84;21035;-71
2021/12/01 09:02:18;;;;;;;21.35;11.73;;;;;;;0.97;78.58;98337.86;1676431;85;21898;-70
2021/12/01 09:04:49;;;;;;;21.95;12.85;;;;;;;0.98;78.63;98330.89;1676180;84;20963;-71
2021/12/01 09:07:15;;;;;;;18.90;11.53;;;;;;;1.00;78.62;98340.23;1676215;84;21011;-71
2021/12/01 09:09:42;;;;;;;16.52;10.15;;;;;;;1.03;78.62;98330.90;1683946;83;21468;-72
2021/12/01 09:12:09;;;;;;;16.70;10.05;;;;;;;1.04;78.65;98328.66;1678530;84;21075;-71
2021/12/01 09:14:36;;;;;;;11.35;8.75;;;;;;;1.09;78.65;98332.23;1686433;84;21883;-70
2021/12/01 09:17:03;;;;;;;13.83;9.33;;;;;;;1.12;78.62;98329.41;1675738;85;20957;-73
2021/12/01 09:19:30;;;;;;;15.20;10.00;;;;;;;1.13;78.52;98334.48;1675733;85;21439;-74
2021/12/01 09:21:57;;;;;;;15.10;10.08;;;;;;;1.14;78.51;98336.14;1675927;85;21024;-71
2021/12/01 09:24:23;;;;;;;13.70;9.80;;;;;;;1.18;78.52;98339.84;1675868;85;20976;-72
2021/12/01 09:26:50;;;;;;;11.40;9.00;;;;;;;1.21;78.50;98333.09;1687875;84;22171;-71
2021/12/01 09:29:17;;;;;;;12.37;8.98;;;;;;;1.27;78.41;98340.46;1681243;84;21006;-71
2021/12/01 09:31:44;;;;;;;15.60;11.00;;;;;;;1.29;78.26;98339.87;1682130;84;20998;-72
2021/12/01 09:34:11;;;;;;;17.10;10.78;;;;;;;1.32;78.25;98343.53;1703978;84;21057;-73
2021/12/01 09:36:39;;;;;;;15.23;9.75;;;;;;;1.38;78.24;98353.49;1704159;84;21006;-75
2021/12/01 09:39:06;;;;;;;16.77;10.53;;;;;;;1.40;78.14;98352.91;1702657;84;21802;-73
2021/12/01 09:41:32;;;;;;;14.75;9.95;;;;;;;1.44;78.12;98349.95;1703761;84;21464;-73
2021/12/01 09:43:59;;;;;;;16.10;10.50;;;;;;;1.48;78.08;98349.74;1689068;84;21065;-73
2021/12/01 09:46:29;;;;;;;14.95;9.80;;;;;;;1.53;78.07;98354.11;1660528;84;20968;-73
2021/12/01 09:48:55;;;;;;;12.93;8.98;;;;;;;1.56;77.96;98350.83;1658739;84;21380;-73
2021/12/01 09:51:22;;;;;;;10.85;8.13;;;;;;;1.61;77.80;98347.39;1659026;86;22290;-72
2021/12/01 09:53:49;;;;;;;12.28;8.18;;;;;;;1.65;77.56;98348.84;1659010;86;21097;-73
2021/12/01 09:56:16;;;;;;;12.88;9.03;;;;;;;1.69;77.51;98350.25;1658840;84;21005;-72
2021/12/01 09:58:44;;;;;;;10.53;7.40;;;;;;;1.76;77.51;98361.05;1645130;86;49467;-72
2021/12/01 10:01:17;;;;;;;14.03;8.08;;;;;;;1.84;77.40;98365.67;1671026;84;21061;-72
2021/12/01 10:03:44;;;;;;;12.68;7.17;;;;;;;1.88;77.11;98362.70;1688483;84;21837;-73
2021/12/01 10:06:18;;;;;;;8.93;6.40;;;;;;;1.93;77.01;98357.13;1677651;84;21009;-73
2021/12/01 10:08:47;;;;;;;8.10;5.90;;;;;;;1.98;76.80;98366.74;1701683;84;21436;-73
2021/12/01 10:11:22;;;;;;;8.55;6.28;;;;;;;2.00;76.50;98367.45;1700957;83;20998;-73
2021/12/01 10:13:59;;;;;;;7.55;5.62;;;;;;;2.04;76.38;98375.40;1704005;84;20997;-74
2021/12/01 10:16:30;;;;;;;10.18;7.12;;;;;;;2.07;76.08;98379.06;1704098;83;21808;-74
2021/12/01 10:18:59;;;;;;;12.18;7.30;;;;;;;2.12;75.95;98390.41;1700406;84;20957;-74
2021/12/01 10:21:35;;;;;;;12.80;7.72;;;;;;;2.14;75.90;98389.84;1684511;84;21103;-72
2021/12/01 10:24:07;;;;;;;9.03;6.12;;;;;;;2.17;75.79;98395.64;1674446;85;21045;-72
2021/12/01 10:26:56;;;;;;;7.22;6.10;;;;;;;2.21;75.64;98393.62;1677349;84;21037;-72
2021/12/01 10:29:30;;;;;;;6.25;4.95;;;;;;;2.24;75.51;98394.23;1692332;83;21836;-73
2021/12/01 10:32:00;;;;;;;6.72;5.42;;;;;;;2.28;75.29;98398.25;1677157;84;20966;-74
2021/12/01 10:34:37;;;;;;;7.47;5.40;;;;;;;2.39;75.33;98399.19;1679254;84;21012;-74
2021/12/01 10:37:15;;;;;;;7.53;5.65;;;;;;;2.51;75.35;98405.60;1675414;84;21606;-74
2021/12/01 10:39:48;;;;;;;8.45;6.03;;;;;;;2.61;75.14;98400.50;1675241;85;21036;-73
2021/12/01 10:42:16;;;;;;;7.12;5.30;;;;;;;2.66;74.70;98406.64;1683704;84;21762;-73
2021/12/01 10:44:59;;;;;;;7.85;5.28;;;;;;;2.66;74.39;98406.17;1686186;84;21454;-72
2021/12/01 10:47:28;;;;;;;7.22;5.10;;;;;;;2.62;74.03;98410.45;1689715;84;21034;-72
2021/12/01 10:49:57;;;;;;;5.78;5.00;;;;;;;2.61;73.87;98417.45;1705814;83;21074;-72
2021/12/01 10:52:31;;;;;;;5.10;4.60;;;;;;;2.67;73.93;98415.64;1704088;84;20942;-73
2021/12/01 10:55:12;;;;;;;7.28;5.90;;;;;;;2.78;73.95;98420.84;1701911;84;21811;-74
2021/12/01 10:57:47;;;;;;;6.47;5.03;;;;;;;2.85;73.71;98427.71;1701318;83;21095;-73
2021/12/01 11:00:31;;;;;;;7.78;5.15;;;;;;;2.91;73.34;98436.84;1687917;84;20986;-73
2021/12/01 11:03:26;;;;;;;6.10;5.22;;;;;;;2.88;72.92;98440.50;1707400;84;20967;-73
2021/12/01 11:06:23;;;;;;;6.95;4.92;;;;;;;2.82;72.65;98437.09;1675892;84;20965;-72
2021/12/01 11:08:58;;;;;;;8.80;6.40;;;;;;;2.80;72.44;98438.99;1675704;84;22694;-73
2021/12/01 11:11:29;;;;;;;7.58;5.83;;;;;;;2.80;72.32;98445.52;1687252;83;20945;-73
2021/12/01 11:14:01;;;;;;;8.25;5.92;;;;;;;2.80;72.28;98445.03;1682795;84;20958;-73
2021/12/01 11:16:30;;;;;;;6.45;5.00;;;;;;;2.80;72.12;98446.34;1688131;84;21075;-74
2021/12/01 11:18:57;;;;;;;6.50;5.42;;;;;;;2.77;71.89;98445.25;1632488;85;20960;-73
2021/12/01 11:21:24;;;;;;;5.60;4.80;;;;;;;2.76;71.81;98446.68;1619301;85;22198;-74
2021/12/01 11:23:56;;;;;;;6.62;4.80;;;;;;;2.74;71.74;98443.38;1675674;85;20985;-74
2021/12/01 11:26:26;;;;;;;8.10;5.10;;;;;;;2.76;71.58;98449.29;1677418;84;21033;-74
2021/12/01 11:28:56;;;;;;;10.55;7.70;;;;;;;2.76;71.46;98452.72;1690568;84;20969;-74
2021/12/01 11:31:37;;;;;;;7.72;6.35;;;;;;;2.78;71.40;98456.51;1695358;84;20961;-74
2021/12/01 11:34:16;;;;;;;8.08;5.95;;;;;;;2.79;71.46;98452.95;1654512;84;21836;-76
2021/12/01 11:36:46;;;;;;;6.87;5.30;;;;;;;2.82;71.46;98463.16;1659110;85;20997;-76
2021/12/01 11:39:22;;;;;;;5.08;4.50;;;;;;;2.84;71.31;98469.08;1687302;84;21492;-72